Time;durP1;ratioP1;P1;durP2;ratioP2;P2;SDS_P1;SDS_P2;PMS_P1;PMS_P2;Temp;Humidity;BMP_temperature;BMP_pressure;BME280_temperature;BME280_humidity;BME280_pressure;Samples;Min_cycle;Max_cycle;Signal;HPM_P1;HPM_P2
2022/03/06 00:02:09;;;;;;;32.90;18.10;;;;;;;;;;5067738;28;20057;-44
2022/03/06 00:04:36;;;;;;;43.08;24.27;;;;;;;;;;5067914;28;20384;-47
2022/03/06 00:07:02;;;;;;;58.78;30.63;;;;;;;;;;5068441;28;20024;-48
2022/03/06 00:09:28;;;;;;;23.10;13.23;;;;;;;;;;5067955;28;20527;-46
2022/03/06 00:11:54;;;;;;;33.55;18.58;;;;;;;;;;5067724;28;20039;-48
2022/03/06 00:14:20;;;;;;;40.47;20.90;;;;;;;;;;5067419;28;20496;-48
2022/03/06 00:16:47;;;;;;;70.88;39.08;;;;;;;;;;5067610;28;20408;-54
2022/03/06 00:19:13;;;;;;;77.82;43.47;;;;;;;;;;5066962;28;20021;-49
2022/03/06 00:21:40;;;;;;;43.28;24.15;;;;;;;;;;5070975;28;20032;-55
2022/03/06 00:24:09;;;;;;;27.42;15.45;;;;;;;;;;5076216;28;20027;-47
2022/03/06 00:26:35;;;;;;;23.75;14.05;;;;;;;;;;5073341;28;20020;-50
2022/03/06 00:29:01;;;;;;;25.15;14.25;;;;;;;;;;5076200;28;20017;-45
2022/03/06 00:31:27;;;;;;;28.20;14.32;;;;;;;;;;5075667;28;20040;-46
2022/03/06 00:33:53;;;;;;;23.85;14.45;;;;;;;;;;5075943;28;20475;-45
2022/03/06 00:36:20;;;;;;;35.60;19.13;;;;;;;;;;5075808;28;20020;-46
2022/03/06 00:38:46;;;;;;;35.70;20.23;;;;;;;;;;5075866;28;20021;-49
2022/03/06 00:41:13;;;;;;;29.00;17.70;;;;;;;;;;5075812;28;20060;-45
2022/03/06 00:43:39;;;;;;;31.92;17.42;;;;;;;;;;5075857;28;20148;-46
2022/03/06 00:46:05;;;;;;;37.45;19.30;;;;;;;;;;5068294;28;20025;-50
2022/03/06 00:48:31;;;;;;;49.03;26.48;;;;;;;;;;5047232;28;20032;-48
2022/03/06 00:50:57;;;;;;;32.90;19.50;;;;;;;;;;5044163;28;20106;-46
2022/03/06 00:53:24;;;;;;;27.88;15.73;;;;;;;;;;5043974;28;20036;-48
2022/03/06 00:55:50;;;;;;;22.02;13.02;;;;;;;;;;5043814;28;20785;-44
2022/03/06 00:58:17;;;;;;;23.15;13.80;;;;;;;;;;5044038;28;20079;-47
2022/03/06 01:00:44;;;;;;;34.38;18.08;;;;;;;;;;5043593;28;20048;-44
2022/03/06 01:03:11;;;;;;;27.08;14.60;;;;;;;;;;5044770;28;20115;-45
2022/03/06 01:05:38;;;;;;;32.13;17.48;;;;;;;;;;5043781;28;20025;-45
2022/03/06 01:08:05;;;;;;;27.55;14.50;;;;;;;;;;5043648;28;20029;-44
2022/03/06 01:10:31;;;;;;;26.50;15.38;;;;;;;;;;5043895;28;20032;-44
2022/03/06 01:13:00;;;;;;;25.60;13.68;;;;;;;;;;5043529;28;20024;-46
2022/03/06 01:15:26;;;;;;;26.23;13.43;;;;;;;;;;5043163;28;20028;-44
2022/03/06 01:17:52;;;;;;;20.02;12.25;;;;;;;;;;5043778;28;20074;-45
2022/03/06 01:20:19;;;;;;;19.80;11.27;;;;;;;;;;5043371;28;20136;-45
2022/03/06 01:22:45;;;;;;;27.17;14.95;;;;;;;;;;5043579;28;20021;-46
2022/03/06 01:25:12;;;;;;;23.30;13.55;;;;;;;;;;5044539;28;20086;-45
2022/03/06 01:27:38;;;;;;;24.83;14.75;;;;;;;;;;5044703;28;20325;-44
2022/03/06 01:30:06;;;;;;;20.80;12.52;;;;;;;;;;5043369;28;20037;-44
2022/03/06 01:32:33;;;;;;;27.48;16.10;;;;;;;;;;5042987;28;20028;-47
2022/03/06 01:34:59;;;;;;;23.70;12.85;;;;;;;;;;5043432;28;20029;-46
2022/03/06 01:37:25;;;;;;;19.63;12.15;;;;;;;;;;5035496;28;20060;-50
2022/03/06 01:39:51;;;;;;;19.30;11.20;;;;;;;;;;5044406;28;20017;-43
2022/03/06 01:42:17;;;;;;;22.52;11.57;;;;;;;;;;5044967;28;20032;-44
2022/03/06 01:44:50;;;;;;;21.52;12.20;;;;;;;;;;5044143;28;20029;-44
2022/03/06 01:47:35;;;;;;;27.52;15.73;;;;;;;;;;5055498;28;20054;-46
2022/03/06 01:50:02;;;;;;;29.63;15.40;;;;;;;;;;5095097;28;20035;-44
2022/03/06 01:52:28;;;;;;;29.23;15.30;;;;;;;;;;5095253;28;20107;-45
2022/03/06 01:54:54;;;;;;;24.60;14.05;;;;;;;;;;5076866;28;20508;-45
2022/03/06 01:57:20;;;;;;;24.05;12.77;;;;;;;;;;5095063;28;20032;-50
2022/03/06 01:59:46;;;;;;;19.13;11.10;;;;;;;;;;5094972;28;20077;-46
2022/03/06 02:02:12;;;;;;;15.50;9.23;;;;;;;;;;5094695;28;20075;-45
2022/03/06 02:04:38;;;;;;;19.05;11.32;;;;;;;;;;5094917;28;20035;-45
2022/03/06 02:07:04;;;;;;;18.05;10.80;;;;;;;;;;5094916;28;20020;-48
2022/03/06 02:09:30;;;;;;;16.17;9.45;;;;;;;;;;5076532;28;20121;-45
2022/03/06 02:14:41;;;;;;;15.85;8.40;;;;;;;;;;5094804;28;20076;-44
2022/03/06 02:17:08;;;;;;;19.02;9.25;;;;;;;;;;5094572;28;20032;-47
2022/03/06 02:19:50;;;;;;;26.17;14.82;;;;;;;;;;5094658;28;20035;-48
2022/03/06 02:22:16;;;;;;;15.43;9.07;;;;;;;;;;5094796;28;20051;-47
2022/03/06 02:24:42;;;;;;;15.13;8.55;;;;;;;;;;5094642;28;20027;-49
2022/03/06 02:27:08;;;;;;;18.85;9.40;;;;;;;;;;5094439;28;20027;-46
2022/03/06 02:29:34;;;;;;;18.77;10.80;;;;;;;;;;5094519;28;20016;-45
2022/03/06 02:32:01;;;;;;;16.30;9.60;;;;;;;;;;5094764;28;20024;-46
2022/03/06 02:34:29;;;;;;;18.67;11.77;;;;;;;;;;5094336;28;20020;-46
2022/03/06 02:36:55;;;;;;;16.52;8.52;;;;;;;;;;5094467;28;20023;-44
2022/03/06 02:39:27;;;;;;;16.48;10.85;;;;;;;;;;5094272;28;20024;-44
2022/03/06 02:41:53;;;;;;;16.20;9.50;;;;;;;;;;5094231;28;20024;-46
2022/03/06 02:44:19;;;;;;;16.00;8.75;;;;;;;;;;5093982;28;20069;-43
2022/03/06 02:46:48;;;;;;;14.57;9.32;;;;;;;;;;5093975;28;20081;-44
2022/03/06 02:49:14;;;;;;;17.95;10.70;;;;;;;;;;5094127;28;20148;-45
2022/03/06 02:51:41;;;;;;;17.25;10.23;;;;;;;;;;5094050;28;20032;-48
2022/03/06 02:54:07;;;;;;;18.92;8.60;;;;;;;;;;5093951;28;20483;-48
2022/03/06 02:56:34;;;;;;;19.45;11.65;;;;;;;;;;5094064;28;20035;-45
2022/03/06 02:59:00;;;;;;;17.15;9.45;;;;;;;;;;5093955;28;20089;-48
2022/03/06 03:01:26;;;;;;;15.27;9.82;;;;;;;;;;5093538;28;20066;-51
2022/03/06 03:03:52;;;;;;;14.55;8.88;;;;;;;;;;5093735;28;20032;-46
2022/03/06 03:06:18;;;;;;;15.40;8.88;;;;;;;;;;5093861;28;20095;-45
2022/03/06 03:08:46;;;;;;;23.60;13.35;;;;;;;;;;5093898;28;20035;-47
2022/03/06 03:11:12;;;;;;;16.77;10.25;;;;;;;;;;5093576;28;20096;-48
2022/03/06 03:13:38;;;;;;;16.85;9.18;;;;;;;;;;5093811;28;20028;-47
2022/03/06 03:16:06;;;;;;;25.60;13.32;;;;;;;;;;5093449;28;20024;-45
2022/03/06 03:18:32;;;;;;;21.40;11.73;;;;;;;;;;5093840;28;20020;-49
2022/03/06 03:20:58;;;;;;;25.08;13.85;;;;;;;;;;5093581;28;20155;-44
2022/03/06 03:23:24;;;;;;;15.95;9.40;;;;;;;;;;5093735;28;20016;-44
2022/03/06 03:25:50;;;;;;;12.68;7.95;;;;;;;;;;5093504;28;20028;-46
2022/03/06 03:28:17;;;;;;;15.27;8.90;;;;;;;;;;5093576;28;20069;-45
2022/03/06 03:30:43;;;;;;;17.58;8.48;;;;;;;;;;5093243;28;20039;-45
2022/03/06 03:33:11;;;;;;;15.07;9.60;;;;;;;;;;5093446;28;20032;-48
2022/03/06 03:35:37;;;;;;;19.13;9.70;;;;;;;;;;5093436;28;20045;-45
2022/03/06 03:38:04;;;;;;;15.50;9.00;;;;;;;;;;5093490;28;20570;-47
2022/03/06 03:40:32;;;;;;;12.77;8.02;;;;;;;;;;5093335;28;20108;-44
2022/03/06 03:43:00;;;;;;;18.73;9.38;;;;;;;;;;5093536;28;20144;-45
2022/03/06 03:45:26;;;;;;;15.85;9.48;;;;;;;;;;5093222;28;20027;-44
2022/03/06 03:47:52;;;;;;;16.52;9.95;;;;;;;;;;5093398;28;20050;-44
2022/03/06 03:50:18;;;;;;;18.05;10.30;;;;;;;;;;5093191;28;20032;-45
2022/03/06 03:52:44;;;;;;;17.80;9.88;;;;;;;;;;5093372;28;20487;-44
2022/03/06 03:55:10;;;;;;;19.70;11.05;;;;;;;;;;5094278;28;20028;-44
2022/03/06 03:57:36;;;;;;;18.73;10.80;;;;;;;;;;5097438;28;20024;-44
2022/03/06 04:00:04;;;;;;;19.92;11.63;;;;;;;;;;5097199;28;20031;-49
2022/03/06 04:02:30;;;;;;;25.70;13.25;;;;;;;;;;5097084;28;20501;-50
2022/03/06 04:04:58;;;;;;;19.45;10.23;;;;;;;;;;5097442;28;20031;-45
2022/03/06 04:07:27;;;;;;;26.38;12.68;;;;;;;;;;5097247;28;20487;-49
2022/03/06 04:09:53;;;;;;;22.15;11.55;;;;;;;;;;5097265;28;20207;-45
2022/03/06 04:12:19;;;;;;;24.67;12.73;;;;;;;;;;5097052;28;20024;-44
2022/03/06 04:14:45;;;;;;;18.30;10.13;;;;;;;;;;5097217;28;20486;-44
2022/03/06 04:17:11;;;;;;;20.92;11.65;;;;;;;;;;5096760;28;20089;-44
2022/03/06 04:19:37;;;;;;;22.23;12.18;;;;;;;;;;5097180;28;20099;-44
2022/03/06 04:22:04;;;;;;;22.50;11.98;;;;;;;;;;5096973;28;20495;-43
2022/03/06 04:24:30;;;;;;;19.80;10.88;;;;;;;;;;5096861;28;20028;-48
2022/03/06 04:26:56;;;;;;;26.30;12.48;;;;;;;;;;5096936;28;20047;-44
2022/03/06 04:29:22;;;;;;;20.77;11.93;;;;;;;;;;5096851;28;20020;-44
2022/03/06 04:31:48;;;;;;;24.83;13.57;;;;;;;;;;5096359;28;20506;-43
2022/03/06 04:34:14;;;;;;;21.55;12.10;;;;;;;;;;5096839;28;20063;-44
2022/03/06 04:36:40;;;;;;;20.35;11.73;;;;;;;;;;5096899;28;20020;-44
2022/03/06 04:39:09;;;;;;;16.55;10.43;;;;;;;;;;5096765;28;20020;-44
2022/03/06 04:41:35;;;;;;;17.63;9.25;;;;;;;;;;5096706;28;20045;-48
2022/03/06 04:44:01;;;;;;;18.55;10.18;;;;;;;;;;5096645;28;20020;-45
2022/03/06 04:46:27;;;;;;;17.60;9.88;;;;;;;;;;5096257;28;20020;-46
2022/03/06 04:48:53;;;;;;;15.10;9.60;;;;;;;;;;5096659;28;20020;-45
2022/03/06 04:51:19;;;;;;;16.40;10.05;;;;;;;;;;5096378;28;20036;-47
2022/03/06 04:53:45;;;;;;;18.60;10.50;;;;;;;;;;5096499;28;20061;-44
2022/03/06 04:56:11;;;;;;;18.02;9.90;;;;;;;;;;5096415;28;20494;-44
2022/03/06 04:58:38;;;;;;;16.88;9.65;;;;;;;;;;5096370;28;20115;-46
2022/03/06 05:01:04;;;;;;;22.95;10.50;;;;;;;;;;5096177;28;20447;-45
2022/03/06 05:03:33;;;;;;;16.70;9.93;;;;;;;;;;5096279;28;20024;-46
2022/03/06 05:05:59;;;;;;;17.73;10.07;;;;;;;;;;5096469;28;20041;-45
2022/03/06 05:08:28;;;;;;;21.27;10.60;;;;;;;;;;5096158;28;20024;-44
2022/03/06 05:10:55;;;;;;;19.73;10.65;;;;;;;;;;5096171;28;20028;-45
2022/03/06 05:13:24;;;;;;;20.02;10.75;;;;;;;;;;5096092;28;20023;-45
2022/03/06 05:15:51;;;;;;;18.55;9.95;;;;;;;;;;5095903;28;20020;-45
2022/03/06 05:18:17;;;;;;;18.83;9.75;;;;;;;;;;5095764;28;20058;-45
2022/03/06 05:20:44;;;;;;;18.52;10.30;;;;;;;;;;5096053;28;20031;-44
2022/03/06 05:23:10;;;;;;;19.85;10.98;;;;;;;;;;5096021;28;20020;-45
2022/03/06 05:25:36;;;;;;;16.85;9.10;;;;;;;;;;5077738;28;20043;-52
2022/03/06 05:28:02;;;;;;;19.58;10.77;;;;;;;;;;5095906;28;20023;-49
2022/03/06 05:30:30;;;;;;;24.85;12.27;;;;;;;;;;5095377;28;20392;-47
2022/03/06 05:32:56;;;;;;;23.35;12.27;;;;;;;;;;5095675;28;20027;-49
2022/03/06 05:35:23;;;;;;;19.88;10.63;;;;;;;;;;5095735;28;20020;-45
2022/03/06 05:37:49;;;;;;;19.80;10.27;;;;;;;;;;5095766;28;20020;-46
2022/03/06 05:40:15;;;;;;;13.80;8.95;;;;;;;;;;5095595;28;20025;-45
2022/03/06 05:42:41;;;;;;;16.02;9.50;;;;;;;;;;5095456;28;20020;-44
2022/03/06 05:45:07;;;;;;;17.95;10.25;;;;;;;;;;5095564;28;20020;-45
2022/03/06 05:47:34;;;;;;;17.98;10.68;;;;;;;;;;5076701;28;20036;-44
2022/03/06 05:50:00;;;;;;;16.50;9.27;;;;;;;;;;5095355;28;20024;-53
2022/03/06 05:52:26;;;;;;;19.48;10.23;;;;;;;;;;5095286;28;20024;-44
2022/03/06 05:54:54;;;;;;;19.15;9.30;;;;;;;;;;5095641;28;20016;-44
2022/03/06 05:57:20;;;;;;;16.73;9.15;;;;;;;;;;5095194;28;20020;-44
2022/03/06 05:59:49;;;;;;;17.33;9.48;;;;;;;;;;5095014;28;20024;-44
2022/03/06 06:02:19;;;;;;;16.35;9.77;;;;;;;;;;5094727;28;20536;-44
2022/03/06 06:04:45;;;;;;;15.70;9.07;;;;;;;;;;5095210;28;20111;-44
2022/03/06 06:07:11;;;;;;;16.60;10.50;;;;;;;;;;5095093;28;20020;-45
2022/03/06 06:09:37;;;;;;;21.08;10.05;;;;;;;;;;5095007;28;20115;-45
2022/03/06 06:12:04;;;;;;;17.15;9.90;;;;;;;;;;5094797;28;20116;-45
2022/03/06 06:14:30;;;;;;;17.48;10.45;;;;;;;;;;5094781;28;20438;-44
2022/03/06 06:16:56;;;;;;;20.30;10.60;;;;;;;;;;5094651;28;20020;-44
2022/03/06 06:19:22;;;;;;;15.85;9.55;;;;;;;;;;5094123;28;20012;-44
2022/03/06 06:21:48;;;;;;;19.38;10.40;;;;;;;;;;5094776;28;20016;-45
2022/03/06 06:24:15;;;;;;;21.02;11.02;;;;;;;;;;5094589;28;20388;-44
2022/03/06 06:26:42;;;;;;;23.75;11.43;;;;;;;;;;5094484;28;20035;-45
2022/03/06 06:29:08;;;;;;;22.98;11.75;;;;;;;;;;5094559;28;20027;-44
2022/03/06 06:31:34;;;;;;;24.35;12.60;;;;;;;;;;5094147;28;20043;-43
2022/03/06 06:34:00;;;;;;;29.08;14.80;;;;;;;;;;5094493;28;20031;-45
2022/03/06 06:36:26;;;;;;;35.05;15.88;;;;;;;;;;5094485;28;20430;-45
2022/03/06 06:38:53;;;;;;;23.73;12.70;;;;;;;;;;5094420;28;20016;-45
2022/03/06 06:41:19;;;;;;;19.52;11.52;;;;;;;;;;5094315;28;20450;-45
2022/03/06 06:43:45;;;;;;;20.20;12.52;;;;;;;;;;5094275;28;20167;-45
2022/03/06 06:46:12;;;;;;;25.52;12.73;;;;;;;;;;5094076;28;20380;-46
2022/03/06 06:48:38;;;;;;;20.13;12.40;;;;;;;;;;5094325;28;20039;-45
2022/03/06 06:51:05;;;;;;;24.67;12.63;;;;;;;;;;5093922;28;20608;-45
2022/03/06 06:53:31;;;;;;;23.45;13.63;;;;;;;;;;5094059;28;20024;-45
2022/03/06 06:55:57;;;;;;;21.80;13.32;;;;;;;;;;5075420;28;20036;-45
2022/03/06 06:58:23;;;;;;;24.27;14.75;;;;;;;;;;5093963;28;20016;-46
2022/03/06 07:00:49;;;;;;;24.38;13.70;;;;;;;;;;5093483;28;20084;-45
2022/03/06 07:03:15;;;;;;;23.92;14.77;;;;;;;;;;5093873;28;20051;-45
2022/03/06 07:05:42;;;;;;;26.63;14.65;;;;;;;;;;5094000;28;20031;-45
2022/03/06 07:08:08;;;;;;;33.65;17.50;;;;;;;;;;5093920;28;20044;-45
2022/03/06 07:10:37;;;;;;;26.05;14.20;;;;;;;;;;5093839;28;20040;-46
2022/03/06 07:13:03;;;;;;;27.52;15.10;;;;;;;;;;5093678;28;20392;-44
2022/03/06 07:15:32;;;;;;;28.50;15.73;;;;;;;;;;5093620;28;20127;-45
2022/03/06 07:17:59;;;;;;;26.10;15.02;;;;;;;;;;5093667;28;20472;-46
2022/03/06 07:20:25;;;;;;;27.13;16.00;;;;;;;;;;5075249;28;20027;-47
2022/03/06 07:22:51;;;;;;;28.85;15.52;;;;;;;;;;5093531;28;20103;-47
2022/03/06 07:25:17;;;;;;;40.90;22.33;;;;;;;;;;5093467;28;20020;-45
2022/03/06 07:27:43;;;;;;;35.30;21.55;;;;;;;;;;5093347;28;20115;-45
2022/03/06 07:30:10;;;;;;;43.35;21.95;;;;;;;;;;5092363;28;20082;-46
2022/03/06 07:32:43;;;;;;;45.63;23.25;;;;;;;;;;5093203;28;20035;-45
2022/03/06 07:35:09;;;;;;;53.55;24.35;;;;;;;;;;5093351;28;20031;-45
2022/03/06 07:37:35;;;;;;;54.95;27.42;;;;;;;;;;5093209;28;20071;-45
2022/03/06 07:40:01;;;;;;;67.70;30.30;;;;;;;;;;5093310;28;20024;-45
2022/03/06 07:42:28;;;;;;;67.13;30.42;;;;;;;;;;5093187;28;20032;-47
2022/03/06 07:44:54;;;;;;;53.10;27.70;;;;;;;;;;5093214;28;20017;-48
2022/03/06 07:47:20;;;;;;;41.10;20.15;;;;;;;;;;5093042;28;20180;-47
2022/03/06 07:49:46;;;;;;;41.63;20.70;;;;;;;;;;5093334;28;20046;-44
2022/03/06 07:52:12;;;;;;;44.13;22.88;;;;;;;;;;5093203;28;20028;-50
2022/03/06 07:54:38;;;;;;;31.50;17.48;;;;;;;;;;5093397;28;20027;-44
2022/03/06 07:57:04;;;;;;;40.33;21.98;;;;;;;;;;5093177;28;20020;-44
2022/03/06 07:59:30;;;;;;;29.63;18.63;;;;;;;;;;5093207;28;20021;-45
2022/03/06 08:01:56;;;;;;;35.63;18.67;;;;;;;;;;5092762;28;20052;-45
2022/03/06 08:04:22;;;;;;;34.35;20.38;;;;;;;;;;5093062;28;20028;-45
2022/03/06 08:06:49;;;;;;;35.67;21.25;;;;;;;;;;5093080;28;20032;-45
2022/03/06 08:09:15;;;;;;;35.10;21.30;;;;;;;;;;5093092;28;20383;-46
2022/03/06 08:11:43;;;;;;;38.42;22.20;;;;;;;;;;5093043;28;20058;-45
2022/03/06 08:14:10;;;;;;;44.05;21.58;;;;;;;;;;5093089;28;20100;-45
2022/03/06 08:16:36;;;;;;;44.50;23.55;;;;;;;;;;5092823;28;20440;-45
2022/03/06 08:19:02;;;;;;;32.15;17.95;;;;;;;;;;5092886;28;20101;-45
2022/03/06 08:21:28;;;;;;;36.58;20.95;;;;;;;;;;5092885;28;20036;-45
2022/03/06 08:23:54;;;;;;;28.63;18.23;;;;;;;;;;5093064;28;20448;-46
2022/03/06 08:26:22;;;;;;;39.10;20.92;;;;;;;;;;5092894;28;20027;-44
2022/03/06 08:28:48;;;;;;;39.38;23.08;;;;;;;;;;5092937;28;20024;-44
2022/03/06 08:31:15;;;;;;;36.65;18.98;;;;;;;;;;5092499;28;20097;-45
2022/03/06 08:33:41;;;;;;;47.67;24.10;;;;;;;;;;5092812;28;20032;-45
2022/03/06 08:36:07;;;;;;;54.38;25.90;;;;;;;;;;5093101;28;20020;-45
2022/03/06 08:38:33;;;;;;;47.92;25.65;;;;;;;;;;5092909;28;20352;-45
2022/03/06 08:41:00;;;;;;;35.65;21.85;;;;;;;;;;5093287;28;20024;-45
2022/03/06 08:43:26;;;;;;;28.30;18.20;;;;;;;;;;5096480;28;20032;-46
2022/03/06 08:45:52;;;;;;;33.22;18.80;;;;;;;;;;5096840;28;20024;-45
2022/03/06 08:48:21;;;;;;;32.30;17.60;;;;;;;;;;5096517;28;20405;-45
2022/03/06 08:50:47;;;;;;;33.58;18.70;;;;;;;;;;5096410;28;20395;-45
2022/03/06 08:53:13;;;;;;;55.35;25.95;;;;;;;;;;5096270;28;20103;-48
2022/03/06 08:55:39;;;;;;;88.07;36.30;;;;;;;;;;5096251;28;20024;-52
2022/03/06 08:58:05;;;;;;;91.63;38.05;;;;;;;;;;5096181;28;20059;-47
2022/03/06 09:00:31;;;;;;;71.93;29.52;;;;;;;;;;5095990;28;20039;-45
2022/03/06 09:02:57;;;;;;;73.40;32.35;;;;;;;;;;5077253;28;20526;-47
2022/03/06 09:05:23;;;;;;;56.80;29.80;;;;;;;;;;5095979;28;20024;-45
2022/03/06 09:07:49;;;;;;;48.78;26.02;;;;;;;;;;5096149;28;20479;-45
2022/03/06 09:10:15;;;;;;;50.47;26.88;;;;;;;;;;5095799;28;20086;-45
2022/03/06 09:12:41;;;;;;;45.47;23.50;;;;;;;;;;5095807;28;20035;-45
2022/03/06 09:15:08;;;;;;;45.15;23.67;;;;;;;;;;5095834;28;20028;-46
2022/03/06 09:17:34;;;;;;;51.08;26.05;;;;;;;;;;5095783;28;20027;-45
2022/03/06 09:20:02;;;;;;;44.58;23.92;;;;;;;;;;5095736;28;20020;-48
2022/03/06 09:22:28;;;;;;;39.67;22.88;;;;;;;;;;5095618;28;20111;-46
2022/03/06 09:24:54;;;;;;;45.83;26.83;;;;;;;;;;5095775;28;20047;-45
2022/03/06 09:27:20;;;;;;;49.25;27.40;;;;;;;;;;5095809;28;20490;-44
2022/03/06 09:29:46;;;;;;;53.63;29.48;;;;;;;;;;5095464;28;20035;-44
2022/03/06 09:32:12;;;;;;;52.78;31.10;;;;;;;;;;5095440;28;20042;-44
2022/03/06 09:34:38;;;;;;;43.63;25.83;;;;;;;;;;5095642;28;20020;-45
2022/03/06 09:37:04;;;;;;;53.25;29.98;;;;;;;;;;5061741;28;20132;-44
2022/03/06 09:39:31;;;;;;;67.15;34.85;;;;;;;;;;5074673;28;20031;-45
2022/03/06 09:41:57;;;;;;;68.20;35.83;;;;;;;;;;5074685;28;20044;-45
2022/03/06 09:44:27;;;;;;;70.95;37.42;;;;;;;;;;5074674;28;20511;-46
2022/03/06 09:46:55;;;;;;;80.13;37.35;;;;;;;;;;5071903;28;20048;-45
2022/03/06 09:49:22;;;;;;;72.70;38.95;;;;;;;;;;5074630;28;20028;-46
2022/03/06 09:51:48;;;;;;;101.18;52.22;;;;;;;;;;5074271;28;20039;-45
2022/03/06 09:54:16;;;;;;;80.72;40.75;;;;;;;;;;5073618;28;20025;-49
2022/03/06 09:56:42;;;;;;;71.30;38.80;;;;;;;;;;5074480;28;20384;-47
2022/03/06 09:59:08;;;;;;;66.82;36.20;;;;;;;;;;5074234;28;20024;-46
2022/03/06 10:01:34;;;;;;;66.35;36.10;;;;;;;;;;5073911;28;20048;-49
2022/03/06 10:04:19;;;;;;;61.88;33.90;;;;;;;;;;5074193;28;20114;-46
2022/03/06 10:07:03;;;;;;;75.97;37.22;;;;;;;;;;5073717;28;20032;-49
2022/03/06 10:09:30;;;;;;;63.35;31.98;;;;;;;;;;5074881;28;20380;-49
2022/03/06 10:11:56;;;;;;;60.78;31.27;;;;;;;;;;5074440;28;20043;-49
2022/03/06 10:14:35;;;;;;;59.97;33.60;;;;;;;;;;5074590;28;20388;-48
2022/03/06 10:17:08;;;;;;;54.25;32.38;;;;;;;;;;5074609;28;20488;-50
2022/03/06 10:19:48;;;;;;;47.03;28.00;;;;;;;;;;5074513;28;20116;-48
2022/03/06 10:22:14;;;;;;;46.60;29.55;;;;;;;;;;5074383;28;20029;-49
2022/03/06 10:24:50;;;;;;;51.65;31.02;;;;;;;;;;5074066;28;20037;-47
2022/03/06 10:27:17;;;;;;;49.58;31.02;;;;;;;;;;5073889;28;20048;-48
2022/03/06 10:29:43;;;;;;;46.88;29.58;;;;;;;;;;5073531;28;20040;-47
2022/03/06 10:32:09;;;;;;;47.05;26.10;;;;;;;;;;5073593;28;20028;-46
2022/03/06 10:34:37;;;;;;;38.88;24.88;;;;;;;;;;5073516;28;20098;-48
2022/03/06 10:37:05;;;;;;;40.33;26.10;;;;;;;;;;5055009;28;20467;-45
2022/03/06 10:39:43;;;;;;;56.13;33.78;;;;;;;;;;5073379;28;20024;-49
2022/03/06 10:42:10;;;;;;;41.13;27.60;;;;;;;;;;5071242;28;20020;-48
2022/03/06 10:44:49;;;;;;;49.58;32.58;;;;;;;;;;5073857;28;20038;-45
2022/03/06 10:47:15;;;;;;;46.35;28.15;;;;;;;;;;5072000;28;20093;-44
2022/03/06 10:49:41;;;;;;;41.25;26.98;;;;;;;;;;5073254;28;20074;-49
2022/03/06 10:52:13;;;;;;;44.10;28.23;;;;;;;;;;5073141;28;20310;-46
2022/03/06 10:54:58;;;;;;;39.22;24.92;;;;;;;;;;5073477;28;20012;-48
2022/03/06 10:57:27;;;;;;;41.95;27.80;;;;;;;;;;5073032;28;20021;-44
2022/03/06 10:59:55;;;;;;;43.03;28.23;;;;;;;;;;5073131;28;20009;-50
2022/03/06 11:02:24;;;;;;;43.20;30.23;;;;;;;;;;5072947;28;20553;-46
2022/03/06 11:04:53;;;;;;;41.72;26.73;;;;;;;;;;5073017;28;20048;-49
2022/03/06 11:07:19;;;;;;;39.42;25.90;;;;;;;;;;5073510;28;20479;-49
2022/03/06 11:09:52;;;;;;;40.70;25.85;;;;;;;;;;5073516;28;20021;-49
2022/03/06 11:12:19;;;;;;;38.28;25.17;;;;;;;;;;5073469;28;20075;-49
2022/03/06 11:14:45;;;;;;;42.30;27.90;;;;;;;;;;5073454;28;20024;-47
2022/03/06 11:17:11;;;;;;;45.20;27.77;;;;;;;;;;5073350;28;20027;-46
2022/03/06 11:19:39;;;;;;;49.30;31.23;;;;;;;;;;5046970;28;20039;-47
2022/03/06 11:22:14;;;;;;;57.97;35.97;;;;;;;;;;5038106;28;20032;-46
2022/03/06 11:24:43;;;;;;;44.60;29.17;;;;;;;;;;5038198;28;20029;-45
2022/03/06 11:27:26;;;;;;;46.22;30.98;;;;;;;;;;5037987;28;20108;-45
2022/03/06 11:29:55;;;;;;;41.78;27.85;;;;;;;;;;5037800;28;20056;-48
2022/03/06 11:32:26;;;;;;;35.80;25.00;;;;;;;;;;5038237;28;20044;-45
2022/03/06 11:34:53;;;;;;;42.60;29.63;;;;;;;;;;5036850;28;20036;-48
2022/03/06 11:37:20;;;;;;;37.15;25.83;;;;;;;;;;5037622;28;20905;-45
2022/03/06 11:39:47;;;;;;;47.00;31.10;;;;;;;;;;5037649;28;20028;-48
2022/03/06 11:42:33;;;;;;;45.42;29.88;;;;;;;;;;5038257;28;20512;-48
2022/03/06 11:45:01;;;;;;;42.28;27.52;;;;;;;;;;5038142;28;20025;-46
2022/03/06 11:47:40;;;;;;;41.10;28.77;;;;;;;;;;5037522;28;20032;-46
2022/03/06 11:50:07;;;;;;;51.83;31.52;;;;;;;;;;5037372;28;21509;-45
2022/03/06 11:52:41;;;;;;;47.50;28.48;;;;;;;;;;5037796;28;20060;-48
2022/03/06 11:55:26;;;;;;;42.97;28.20;;;;;;;;;;5037228;28;20079;-46
2022/03/06 11:57:52;;;;;;;46.33;29.25;;;;;;;;;;5037743;28;20680;-45
2022/03/06 12:00:24;;;;;;;38.95;25.92;;;;;;;;;;5037890;28;20036;-46
2022/03/06 12:02:53;;;;;;;39.83;26.88;;;;;;;;;;5037165;28;20041;-48
2022/03/06 12:05:23;;;;;;;33.35;22.17;;;;;;;;;;5037539;28;20021;-45
2022/03/06 12:07:50;;;;;;;44.92;27.85;;;;;;;;;;5037525;28;20082;-47
2022/03/06 12:10:17;;;;;;;45.28;29.10;;;;;;;;;;5037307;28;20033;-46
2022/03/06 12:12:44;;;;;;;41.78;26.70;;;;;;;;;;5037771;28;20853;-45
2022/03/06 12:15:14;;;;;;;38.35;25.90;;;;;;;;;;5037594;28;20025;-47
2022/03/06 12:17:47;;;;;;;43.33;27.73;;;;;;;;;;5040347;28;21348;-46
2022/03/06 12:20:23;;;;;;;38.58;26.60;;;;;;;;;;5040741;28;20021;-44
2022/03/06 12:22:53;;;;;;;49.30;28.83;;;;;;;;;;5041054;28;20108;-47
2022/03/06 12:25:29;;;;;;;51.30;31.80;;;;;;;;;;5040938;28;20025;-46
2022/03/06 12:28:01;;;;;;;42.38;26.73;;;;;;;;;;5041010;28;20324;-44
2022/03/06 12:30:28;;;;;;;43.35;29.02;;;;;;;;;;5040747;28;20021;-46
2022/03/06 12:32:54;;;;;;;47.85;28.63;;;;;;;;;;5040505;28;20124;-43
2022/03/06 12:35:22;;;;;;;45.78;29.42;;;;;;;;;;5041041;28;20339;-44
2022/03/06 12:37:52;;;;;;;49.42;28.80;;;;;;;;;;5041245;28;20116;-45
2022/03/06 12:40:20;;;;;;;59.75;32.45;;;;;;;;;;5040651;28;20036;-44
2022/03/06 12:42:47;;;;;;;45.95;28.42;;;;;;;;;;5040358;28;21003;-45
2022/03/06 12:45:15;;;;;;;43.28;27.83;;;;;;;;;;5040252;28;20031;-45
2022/03/06 12:47:42;;;;;;;40.75;26.35;;;;;;;;;;5040159;28;20024;-45
2022/03/06 12:50:12;;;;;;;42.00;26.60;;;;;;;;;;5040131;28;20028;-45
2022/03/06 12:52:38;;;;;;;47.58;27.95;;;;;;;;;;5040095;28;20029;-45
2022/03/06 12:55:06;;;;;;;58.33;32.45;;;;;;;;;;5039468;28;20222;-45
2022/03/06 12:57:36;;;;;;;38.65;25.95;;;;;;;;;;5022699;28;20188;-45
2022/03/06 13:00:04;;;;;;;37.88;24.00;;;;;;;;;;5040281;28;20024;-45
2022/03/06 13:02:30;;;;;;;34.15;23.38;;;;;;;;;;5039777;28;20052;-46
2022/03/06 13:04:56;;;;;;;41.13;26.00;;;;;;;;;;5039903;28;20807;-46
2022/03/06 13:07:26;;;;;;;42.63;28.10;;;;;;;;;;5039582;28;20029;-45
2022/03/06 13:10:00;;;;;;;40.35;27.60;;;;;;;;;;5039739;28;20021;-44
2022/03/06 13:12:29;;;;;;;44.63;28.48;;;;;;;;;;5039881;28;20447;-45
2022/03/06 13:14:56;;;;;;;40.67;28.15;;;;;;;;;;5039734;28;20426;-48
2022/03/06 13:17:22;;;;;;;40.72;24.35;;;;;;;;;;5039664;28;20043;-47
2022/03/06 13:19:50;;;;;;;48.58;28.77;;;;;;;;;;5039619;28;20025;-45
2022/03/06 13:22:17;;;;;;;71.95;39.65;;;;;;;;;;5039589;28;20874;-47
2022/03/06 13:24:45;;;;;;;46.63;29.25;;;;;;;;;;5039577;28;20025;-44
2022/03/06 13:27:13;;;;;;;36.58;24.13;;;;;;;;;;5038827;28;20094;-45
2022/03/06 13:29:39;;;;;;;28.58;20.25;;;;;;;;;;5038317;28;20052;-45
2022/03/06 13:32:05;;;;;;;40.08;26.25;;;;;;;;;;5039436;28;20037;-45
2022/03/06 13:34:42;;;;;;;37.55;24.75;;;;;;;;;;5039835;28;20126;-48
2022/03/06 13:37:08;;;;;;;50.63;32.00;;;;;;;;;;5039275;28;20193;-45
2022/03/06 13:39:34;;;;;;;67.53;38.85;;;;;;;;;;5039080;28;20017;-48
2022/03/06 13:42:00;;;;;;;48.70;31.33;;;;;;;;;;5039473;28;20335;-46
2022/03/06 13:44:27;;;;;;;40.30;25.45;;;;;;;;;;5038933;28;20757;-46
2022/03/06 13:46:54;;;;;;;41.60;26.50;;;;;;;;;;5038910;28;20697;-47
2022/03/06 13:49:24;;;;;;;33.45;22.15;;;;;;;;;;5038591;28;20040;-45
2022/03/06 13:52:09;;;;;;;36.00;24.55;;;;;;;;;;5039104;28;20105;-48
2022/03/06 13:54:36;;;;;;;39.10;23.40;;;;;;;;;;5038877;28;20036;-48
2022/03/06 13:57:02;;;;;;;36.38;24.13;;;;;;;;;;5039040;28;20901;-47
2022/03/06 13:59:30;;;;;;;36.67;23.13;;;;;;;;;;5038302;28;20024;-46
2022/03/06 14:02:05;;;;;;;42.42;25.90;;;;;;;;;;5038535;28;20044;-48
2022/03/06 14:04:31;;;;;;;52.75;29.55;;;;;;;;;;5038438;28;20029;-47
2022/03/06 14:07:02;;;;;;;37.50;24.08;;;;;;;;;;5039076;28;20032;-47
2022/03/06 14:09:30;;;;;;;36.70;23.48;;;;;;;;;;5038000;28;20453;-47
2022/03/06 14:12:05;;;;;;;41.60;25.05;;;;;;;;;;5038629;28;20040;-49
2022/03/06 14:14:38;;;;;;;68.03;40.80;;;;;;;;;;5038737;28;20131;-49
2022/03/06 14:17:05;;;;;;;66.90;42.17;;;;;;;;;;5038511;28;20049;-47
2022/03/06 14:19:31;;;;;;;59.97;33.28;;;;;;;;;;5038299;28;20614;-49
2022/03/06 14:22:00;;;;;;;33.13;22.83;;;;;;;;;;5038393;28;20025;-48
2022/03/06 14:24:26;;;;;;;29.88;21.02;;;;;;;;;;5038438;28;20035;-49